Time;durP1;ratioP1;P1;durP2;ratioP2;P2;SDS_P1;SDS_P2;PMS_P1;PMS_P2;Temp;Humidity;BMP_temperature;BMP_pressure;BME280_temperature;BME280_humidity;BME280_pressure;Samples;Min_cycle;Max_cycle;Signal;HPM_P1;HPM_P2
2023/05/05 00:01:01;;;;;;;9.88;5.30;;;16.30;99.90;;;;;;4960988;28;20401;-82
2023/05/05 00:03:27;;;;;;;7.13;5.63;;;16.30;99.90;;;;;;4964137;28;20227;-81
2023/05/05 00:05:54;;;;;;;8.05;5.72;;;16.30;99.90;;;;;;4970496;28;20031;-81
2023/05/05 00:08:20;;;;;;;8.75;6.15;;;16.30;99.90;;;;;;4951577;28;20023;-80
2023/05/05 00:10:50;;;;;;;10.50;6.05;;;16.30;99.90;;;;;;4967531;28;20023;-81
2023/05/05 00:13:19;;;;;;;7.88;6.03;;;17.00;99.90;;;;;;4962096;28;20505;-81
2023/05/05 00:15:46;;;;;;;8.02;6.10;;;16.20;99.90;;;;;;4947238;28;20045;-81
2023/05/05 00:18:13;;;;;;;12.85;5.90;;;16.20;99.90;;;;;;4966475;28;20034;-80
2023/05/05 00:20:39;;;;;;;7.60;5.72;;;16.20;99.90;;;;;;4952593;28;20505;-81
2023/05/05 00:23:05;;;;;;;10.50;6.40;;;16.20;99.90;;;;;;4968658;28;20042;-77
2023/05/05 00:25:30;;;;;;;10.88;6.22;;;17.10;99.90;;;;;;4952292;28;20050;-80
2023/05/05 00:27:56;;;;;;;7.80;5.68;;;16.20;99.90;;;;;;4968983;28;20576;-82
2023/05/05 00:30:22;;;;;;;8.02;5.90;;;16.30;99.90;;;;;;4963771;28;20034;-80
2023/05/05 00:32:48;;;;;;;8.15;5.85;;;16.20;99.90;;;;;;4966058;28;20015;-81
2023/05/05 00:35:17;;;;;;;8.15;5.57;;;18.10;99.90;;;;;;4966900;28;20583;-82
2023/05/05 00:37:43;;;;;;;8.90;5.80;;;16.10;99.90;;;;;;4952110;28;20365;-78
2023/05/05 00:40:10;;;;;;;9.07;5.80;;;15.90;99.90;;;;;;4967723;28;20042;-81
2023/05/05 00:42:44;;;;;;;8.27;5.63;;;15.90;99.90;;;;;;4947979;28;20027;-81
2023/05/05 00:45:11;;;;;;;9.25;5.57;;;15.70;99.90;;;;;;4971813;28;20061;-80
2023/05/05 00:47:37;;;;;;;7.38;5.53;;;15.70;99.90;;;;;;4954867;28;20027;-78
2023/05/05 00:50:08;;;;;;;8.45;5.57;;;15.70;99.90;;;;;;4948800;28;20027;-81
2023/05/05 00:52:35;;;;;;;8.10;5.43;;;15.70;99.90;;;;;;4963412;28;20119;-82
2023/05/05 00:55:01;;;;;;;10.73;6.32;;;;;;;;;;4966771;28;20501;-81
2023/05/05 00:57:27;;;;;;;8.20;6.07;;;15.70;99.90;;;;;;4970912;28;20026;-85
2023/05/05 00:59:54;;;;;;;8.23;6.00;;;15.60;99.90;;;;;;4947181;28;20112;-80
2023/05/05 01:02:21;;;;;;;7.45;5.72;;;15.60;99.90;;;;;;4972257;28;20019;-82
2023/05/05 01:04:47;;;;;;;8.18;5.40;;;15.60;99.90;;;;;;4969021;28;20031;-83
2023/05/05 01:07:29;;;;;;;9.05;5.88;;;16.90;99.90;;;;;;4976657;28;20109;-83
2023/05/05 01:10:21;;;;;;;7.63;5.78;;;15.70;99.90;;;;;;4955453;28;20028;-83
2023/05/05 01:13:13;;;;;;;7.05;5.70;;;15.60;99.90;;;;;;4972605;28;20015;-79
2023/05/05 01:15:52;;;;;;;8.93;6.15;;;15.60;99.90;;;;;;4957920;28;20034;-81
2023/05/05 01:18:39;;;;;;;9.25;6.18;;;15.50;99.90;;;;;;4976473;28;20050;-83
2023/05/05 01:21:25;;;;;;;9.73;5.60;;;15.50;99.90;;;;;;4969078;28;20022;-83
2023/05/05 01:23:59;;;;;;;8.38;5.97;;;15.50;99.90;;;;;;4976510;28;20027;-84
2023/05/05 01:27:09;;;;;;;8.43;5.60;;;15.50;99.90;;;;;;4983849;28;20033;-83
2023/05/05 01:30:08;;;;;;;9.15;6.15;;;15.50;99.90;;;;;;4968468;28;20061;-83
2023/05/05 01:32:40;;;;;;;7.50;5.68;;;15.50;99.90;;;;;;4976099;28;20082;-83
2023/05/05 01:35:14;;;;;;;8.73;5.80;;;15.50;99.90;;;;;;4979153;28;20023;-81
2023/05/05 01:38:20;;;;;;;7.75;5.10;;;15.50;99.90;;;;;;4981107;28;20035;-79
2023/05/05 01:40:49;;;;;;;7.82;5.75;;;15.40;99.90;;;;;;4952808;28;20081;-83
2023/05/05 01:43:18;;;;;;;8.15;5.85;;;15.40;99.90;;;;;;4976164;28;20027;-82
2023/05/05 01:45:47;;;;;;;10.57;6.23;;;15.30;99.90;;;;;;4981075;28;20026;-81
2023/05/05 01:48:15;;;;;;;9.38;5.50;;;15.30;99.90;;;;;;4976107;28;20290;-82
2023/05/05 01:50:42;;;;;;;7.65;5.30;;;15.20;99.90;;;;;;4954105;28;20082;-81
2023/05/05 01:53:08;;;;;;;9.27;5.68;;;15.50;99.90;;;;;;4952855;28;20031;-81
2023/05/05 01:55:36;;;;;;;7.35;5.68;;;15.60;99.90;;;;;;4970884;28;20058;-82
2023/05/05 01:58:04;;;;;;;9.27;5.85;;;15.30;99.90;;;;;;4935740;28;20085;-77
2023/05/05 02:00:32;;;;;;;8.05;5.40;;;15.20;99.90;;;;;;4960859;28;20031;-82
2023/05/05 02:02:59;;;;;;;9.13;6.03;;;15.10;99.90;;;;;;4949987;28;20032;-82
2023/05/05 02:05:25;;;;;;;7.22;5.53;;;15.10;99.90;;;;;;4987394;28;20043;-84
2023/05/05 02:07:56;;;;;;;7.22;5.70;;;16.60;99.90;;;;;;4959520;28;20035;-82
2023/05/05 02:10:22;;;;;;;8.93;5.45;;;15.10;99.90;;;;;;4965493;28;20046;-81
2023/05/05 02:12:50;;;;;;;9.85;5.72;;;15.00;99.90;;;;;;4955097;28;20037;-82
2023/05/05 02:15:16;;;;;;;7.68;5.88;;;15.00;99.90;;;;;;4968839;28;20496;-82
2023/05/05 02:17:43;;;;;;;6.90;6.20;;;15.00;99.90;;;;;;4967456;28;20488;-81
2023/05/05 02:20:12;;;;;;;7.85;5.40;;;15.00;99.90;;;;;;4952115;28;20481;-82
2023/05/05 02:22:39;;;;;;;7.83;6.07;;;15.00;99.90;;;;;;4964533;28;20035;-81
2023/05/05 02:25:05;;;;;;;7.15;5.70;;;15.00;99.90;;;;;;4949733;28;20035;-78
2023/05/05 02:27:33;;;;;;;8.95;5.78;;;15.00;99.90;;;;;;4954521;28;20023;-82
2023/05/05 02:30:05;;;;;;;7.28;6.10;;;15.00;99.90;;;;;;4949595;28;20027;-81
2023/05/05 02:32:33;;;;;;;10.75;6.32;;;14.90;99.90;;;;;;4945894;28;20095;-78
2023/05/05 02:35:26;;;;;;;7.40;5.85;;;15.00;99.90;;;;;;4952681;28;20031;-82
2023/05/05 02:38:00;;;;;;;7.03;5.55;;;14.90;99.90;;;;;;4965929;28;20038;-82
2023/05/05 02:40:28;;;;;;;8.32;6.38;;;16.40;99.90;;;;;;4951151;28;20050;-79
2023/05/05 02:42:57;;;;;;;9.25;6.25;;;14.80;99.90;;;;;;4952127;28;20102;-81
2023/05/05 02:45:25;;;;;;;9.43;5.93;;;14.70;99.90;;;;;;4963946;28;20026;-80
2023/05/05 02:47:51;;;;;;;6.78;5.82;;;14.80;99.90;;;;;;4954233;28;20146;-81
2023/05/05 02:50:17;;;;;;;9.75;6.07;;;14.70;99.90;;;;;;4949520;28;20560;-81
2023/05/05 02:52:43;;;;;;;10.57;6.13;;;14.70;99.90;;;;;;4958644;28;20318;-80
2023/05/05 02:55:09;;;;;;;10.32;6.45;;;14.60;99.90;;;;;;4960941;28;20023;-85
2023/05/05 02:58:01;;;;;;;9.13;6.07;;;14.60;99.90;;;;;;4965019;28;20027;-78
2023/05/05 03:00:35;;;;;;;8.40;5.90;;;14.60;99.90;;;;;;4961621;28;20035;-81
2023/05/05 03:03:15;;;;;;;9.07;5.80;;;14.60;99.90;;;;;;4966611;28;20683;-77
2023/05/05 03:11:05;;;;;;;9.13;6.25;;;14.60;99.90;;;;;;4960790;28;20078;-85
2023/05/05 03:13:35;;;;;;;12.23;6.22;;;14.60;99.90;;;;;;4918384;29;20091;-84
2023/05/05 03:16:05;;;;;;;8.38;6.00;;;15.60;99.90;;;;;;4938551;29;20058;-84
2023/05/05 03:18:33;;;;;;;13.05;6.00;;;14.50;99.90;;;;;;4945460;29;20031;-85
2023/05/05 03:21:06;;;;;;;10.90;6.20;;;14.50;99.90;;;;;;4939980;29;20031;-85
2023/05/05 03:23:33;;;;;;;9.93;6.28;;;;;;;;;;4940527;29;20027;-84
2023/05/05 03:25:58;;;;;;;7.72;5.82;;;14.40;99.90;;;;;;4961815;28;20027;-86
2023/05/05 03:28:24;;;;;;;10.18;6.03;;;;;;;;;;4942902;29;20539;-83
2023/05/05 03:30:50;;;;;;;8.88;5.32;;;;;;;;;;4955108;28;20689;-84
2023/05/05 03:33:16;;;;;;;8.77;6.22;;;;;;;;;;4960013;28;20034;-84
2023/05/05 03:35:42;;;;;;;7.85;5.82;;;;;;;;;;4951776;28;20030;-83
2023/05/05 03:38:08;;;;;;;9.93;5.97;;;;;;;;;;4940334;29;20033;-83
2023/05/05 03:40:34;;;;;;;9.63;6.05;;;;;;;;;;4947035;29;20464;-86
2023/05/05 03:43:01;;;;;;;11.35;6.18;;;;;;;;;;4962710;28;20035;-84
2023/05/05 03:45:27;;;;;;;8.05;6.13;;;;;;;;;;4960997;28;20023;-84
2023/05/05 03:47:53;;;;;;;9.98;5.80;;;;;;;;;;4963418;29;20031;-85
2023/05/05 03:50:19;;;;;;;7.82;5.93;;;;;;;;;;4949913;29;20023;-87
2023/05/05 03:52:45;;;;;;;8.02;5.88;;;;;;;;;;4944100;29;20063;-84
2023/05/05 03:55:11;;;;;;;7.18;5.60;;;;;;;;;;4936987;29;20035;-83
2023/05/05 03:57:40;;;;;;;9.82;5.70;;;14.20;99.90;;;;;;4961847;28;20044;-84
2023/05/05 04:00:09;;;;;;;8.65;6.05;;;14.20;99.90;;;;;;4944911;28;20054;-85
2023/05/05 04:02:35;;;;;;;9.63;6.03;;;14.20;99.90;;;;;;4945483;29;20063;-83
2023/05/05 04:05:01;;;;;;;9.63;5.88;;;;;;;;;;4946773;29;20058;-81
2023/05/05 04:07:26;;;;;;;9.82;6.18;;;14.10;99.90;;;;;;4945094;28;20035;-84
2023/05/05 04:09:52;;;;;;;8.00;6.28;;;14.00;99.90;;;;;;4947498;28;20042;-84
2023/05/05 04:12:18;;;;;;;9.02;5.68;;;14.00;99.90;;;;;;4946633;29;20031;-83
2023/05/05 04:14:43;;;;;;;8.50;5.70;;;14.00;99.90;;;;;;4948388;29;20024;-86
2023/05/05 04:17:09;;;;;;;8.85;5.95;;;;;;;;;;4943078;29;20031;-81
2023/05/05 04:19:35;;;;;;;8.93;5.88;;;14.00;99.90;;;;;;4951006;28;20035;-83
2023/05/05 04:22:01;;;;;;;8.55;5.93;;;14.00;99.90;;;;;;4941782;29;20042;-85
2023/05/05 04:24:27;;;;;;;7.82;6.13;;;;;;;;;;4943088;29;20027;-84
2023/05/05 04:26:52;;;;;;;10.63;6.30;;;13.90;99.90;;;;;;4962979;28;20035;-85
2023/05/05 04:29:18;;;;;;;10.70;6.07;;;13.90;99.90;;;;;;4964533;28;20095;-86
2023/05/05 04:31:45;;;;;;;9.93;5.80;;;;;;;;;;4946048;29;20323;-85
2023/05/05 04:34:10;;;;;;;9.45;5.82;;;13.90;99.90;;;;;;4944628;29;20035;-86
2023/05/05 04:36:36;;;;;;;11.82;6.35;;;14.00;99.90;;;;;;4943884;29;20093;-85
2023/05/05 04:39:02;;;;;;;12.80;6.13;;;;;;;;;;4938804;29;20043;-85
2023/05/05 04:41:28;;;;;;;12.93;6.20;;;14.00;99.90;;;;;;4957982;28;20023;-85
2023/05/05 04:43:54;;;;;;;10.43;6.00;;;;;;;;;;4942939;29;20039;-87
2023/05/05 04:46:23;;;;;;;9.95;5.75;;;14.10;99.90;;;;;;4958502;28;20073;-87
2023/05/05 04:48:48;;;;;;;8.93;5.47;;;14.20;99.90;;;;;;4941368;29;20031;-87
2023/05/05 04:51:14;;;;;;;9.77;6.00;;;;;;;;;;4959224;28;20114;-85
2023/05/05 04:53:40;;;;;;;9.23;5.90;;;;;;;;;;4957795;28;20050;-84
2023/05/05 04:56:06;;;;;;;11.00;6.40;;;;;;;;;;4946139;29;20031;-85
2023/05/05 04:58:32;;;;;;;11.48;6.05;;;14.10;99.90;;;;;;4954138;29;20074;-86
2023/05/05 05:00:58;;;;;;;11.82;6.10;;;;;;;;;;4941724;29;20122;-83
2023/05/05 05:03:24;;;;;;;10.15;6.65;;;;;;;;;;4968463;28;20403;-82
2023/05/05 05:05:50;;;;;;;10.35;5.88;;;14.10;99.90;;;;;;4961052;29;20574;-83
2023/05/05 05:08:16;;;;;;;11.30;6.50;;;14.10;99.90;;;;;;4937779;29;20027;-85
2023/05/05 05:10:45;;;;;;;8.90;6.28;;;14.10;99.90;;;;;;4956893;28;20027;-86
2023/05/05 05:13:10;;;;;;;11.50;5.85;;;14.20;99.90;;;;;;4946347;29;20027;-85
2023/05/05 05:15:37;;;;;;;9.32;6.05;;;;;;;;;;4959457;28;20027;-87
2023/05/05 05:18:03;;;;;;;9.27;5.63;;;;;;;;;;4937781;29;20566;-86
2023/05/05 05:20:30;;;;;;;7.70;5.38;;;14.50;99.90;;;;;;4940963;29;20031;-88
2023/05/05 05:22:56;;;;;;;9.32;5.97;;;14.50;99.90;;;;;;4941582;29;20055;-86
2023/05/05 05:25:22;;;;;;;11.38;5.68;;;14.60;99.90;;;;;;4937230;29;20031;-86
2023/05/05 05:27:48;;;;;;;12.32;6.13;;;14.70;99.90;;;;;;4945895;29;20051;-87
2023/05/05 05:30:14;;;;;;;10.50;6.03;;;;;;;;;;4944406;28;20023;-87
2023/05/05 05:32:40;;;;;;;8.52;5.70;;;;;;;;;;4935797;29;20123;-85
2023/05/05 05:35:06;;;;;;;8.13;5.78;;;;;;;;;;4960565;28;20574;-85
2023/05/05 05:37:33;;;;;;;9.43;5.55;;;15.20;99.90;;;;;;4937734;28;20031;-86
2023/05/05 05:39:59;;;;;;;7.88;5.65;;;;;;;;;;4933994;29;20126;-86
2023/05/05 05:42:25;;;;;;;8.07;5.88;;;;;;;;;;4942876;28;20033;-86
2023/05/05 05:44:54;;;;;;;10.32;5.53;;;15.30;99.90;;;;;;4937040;29;20031;-87
2023/05/05 05:47:20;;;;;;;12.10;6.13;;;15.30;99.90;;;;;;4925535;28;20107;-86
2023/05/05 05:49:45;;;;;;;12.52;6.55;;;15.30;99.90;;;;;;4933467;29;20035;-85
2023/05/05 05:52:11;;;;;;;7.75;6.05;;;15.30;99.90;;;;;;4935063;29;20030;-83
2023/05/05 05:54:37;;;;;;;10.90;6.72;;;15.40;99.90;;;;;;4942317;28;20023;-86
2023/05/05 05:57:03;;;;;;;10.23;6.22;;;;;;;;;;4938698;28;20034;-83
2023/05/05 05:59:28;;;;;;;13.70;6.05;;;15.30;99.90;;;;;;4938545;28;20027;-84
2023/05/05 06:01:55;;;;;;;11.98;6.90;;;;;;;;;;4940374;29;20042;-84
2023/05/05 06:04:21;;;;;;;10.95;6.40;;;;;;;;;;4930965;28;20035;-84
2023/05/05 06:06:47;;;;;;;9.70;5.75;;;;;;;;;;4957039;28;20031;-84
2023/05/05 06:09:13;;;;;;;11.18;6.30;;;;;;;;;;4934393;28;20057;-82
2023/05/05 06:11:39;;;;;;;9.30;6.00;;;;;;;;;;4936223;29;20454;-85
2023/05/05 06:14:05;;;;;;;9.82;7.00;;;15.60;99.90;;;;;;4959565;28;20039;-84
2023/05/05 06:16:30;;;;;;;9.73;6.38;;;15.60;99.90;;;;;;4947227;28;20030;-84
2023/05/05 06:18:56;;;;;;;11.68;6.28;;;15.60;99.90;;;;;;4943160;28;20042;-84
2023/05/05 06:21:22;;;;;;;11.27;6.10;;;;;;;;;;4942674;28;20035;-83
2023/05/05 06:23:48;;;;;;;8.10;5.93;;;;;;;;;;4925831;29;20499;-84
2023/05/05 06:26:14;;;;;;;9.50;6.38;;;;;;;;;;4947915;28;20031;-86
2023/05/05 06:28:40;;;;;;;9.45;5.47;;;;;;;;;;4945949;28;20033;-84
2023/05/05 06:31:06;;;;;;;11.05;6.47;;;16.10;99.90;;;;;;4941612;28;20091;-86
2023/05/05 06:33:32;;;;;;;7.45;5.10;;;;;;;;;;4931067;28;20154;-83
2023/05/05 06:35:58;;;;;;;7.53;5.45;;;;;;;;;;4951553;28;20432;-82
2023/05/05 06:38:24;;;;;;;10.23;5.00;;;16.30;99.90;;;;;;4943431;28;20138;-82
2023/05/05 06:40:50;;;;;;;7.70;4.88;;;16.40;99.90;;;;;;4934388;28;20054;-85
2023/05/05 06:43:16;;;;;;;7.88;4.63;;;;;;;;;;4946957;28;20463;-83
2023/05/05 06:45:42;;;;;;;7.57;4.78;;;;;;;;;;4945885;28;20043;-85
2023/05/05 06:48:08;;;;;;;8.27;5.10;;;;;;;;;;4947860;28;20050;-87
2023/05/05 06:50:34;;;;;;;10.00;4.53;;;16.60;99.90;;;;;;4951335;28;20476;-82
2023/05/05 06:53:00;;;;;;;9.82;4.60;;;;;;;;;;4925832;29;20034;-85
2023/05/05 06:55:26;;;;;;;8.45;4.30;;;;;;;;;;4944879;28;20032;-86
2023/05/05 06:57:52;;;;;;;7.13;3.97;;;;;;;;;;4930970;28;20110;-84
2023/05/05 07:00:18;;;;;;;7.93;4.30;;;17.00;99.90;;;;;;4948041;28;20027;-83
2023/05/05 07:02:46;;;;;;;5.47;3.80;;;;;;;;;;4943101;28;20259;-84
2023/05/05 07:05:12;;;;;;;9.68;3.95;;;;;;;;;;4941010;28;20058;-83
2023/05/05 07:07:50;;;;;;;5.57;3.60;;;17.40;99.90;;;;;;4946119;28;20036;-84
2023/05/05 07:10:16;;;;;;;9.02;3.70;;;;;;;;;;4931960;29;20027;-88
2023/05/05 07:12:42;;;;;;;6.18;3.90;;;;;;;;;;4937792;28;20059;-86
2023/05/05 07:15:08;;;;;;;7.10;3.63;;;17.60;99.90;;;;;;4938025;28;20472;-84
2023/05/05 07:17:36;;;;;;;6.40;3.58;;;17.80;99.90;;;;;;4942421;28;20058;-84
2023/05/05 07:20:02;;;;;;;7.82;3.60;;;17.80;99.90;;;;;;4944088;29;20031;-84
2023/05/05 07:22:28;;;;;;;4.80;3.30;;;;;;;;;;4957835;28;20086;-84
2023/05/05 07:24:56;;;;;;;5.32;3.17;;;;;;;;;;4964501;28;20046;-84
2023/05/05 07:27:22;;;;;;;7.80;3.60;;;;;;;;;;4959959;28;20030;-84
2023/05/05 07:29:48;;;;;;;6.50;3.70;;;;;;;;;;4942437;28;20035;-86
2023/05/05 07:32:14;;;;;;;10.38;3.58;;;;;;;;;;4959425;28;20125;-85
2023/05/05 07:34:40;;;;;;;7.75;4.03;;;;;;;;;;4957927;28;20280;-85
2023/05/05 07:37:06;;;;;;;6.80;3.65;;;;;;;;;;4956938;28;20292;-86
2023/05/05 07:39:33;;;;;;;7.55;3.88;;;;;;;;;;4955560;28;20051;-85
2023/05/05 07:42:00;;;;;;;5.65;3.30;;;;;;;;;;4948948;28;20045;-87
2023/05/05 07:44:26;;;;;;;7.00;3.55;;;;;;;;;;4956231;28;20593;-86
2023/05/05 07:46:52;;;;;;;5.78;3.45;;;;;;;;;;4949014;28;20036;-86
2023/05/05 07:49:19;;;;;;;8.50;3.53;;;;;;;;;;4949201;28;20277;-87
2023/05/05 07:51:45;;;;;;;10.30;3.40;;;;;;;;;;4934290;29;20309;-86
2023/05/05 07:54:12;;;;;;;7.65;3.85;;;;;;;;;;4959501;28;20095;-85
2023/05/05 07:56:38;;;;;;;8.20;3.40;;;;;;;;;;4958501;28;20130;-83
2023/05/05 07:59:04;;;;;;;9.32;3.70;;;;;;;;;;4943698;28;20055;-85
2023/05/05 08:01:30;;;;;;;7.15;3.20;;;;;;;;;;4956824;28;20031;-84
2023/05/05 08:03:56;;;;;;;6.35;3.38;;;;;;;;;;4954976;28;20067;-84
2023/05/05 08:06:23;;;;;;;6.07;3.13;;;;;;;;;;4945291;28;20107;-84
2023/05/05 08:08:50;;;;;;;4.85;2.85;;;;;;;;;;4954970;28;20048;-85
2023/05/05 08:11:16;;;;;;;7.22;2.92;;;19.30;99.90;;;;;;4941688;28;20039;-84
2023/05/05 08:13:43;;;;;;;5.65;2.58;;;;;;;;;;4959545;28;20024;-84
2023/05/05 08:16:09;;;;;;;6.20;2.85;;;;;;;;;;4956423;28;20028;-84
2023/05/05 08:18:37;;;;;;;7.50;2.63;;;;;;;;;;4939332;28;20109;-85
2023/05/05 08:21:07;;;;;;;4.88;2.50;;;19.50;99.90;;;;;;4962302;28;20023;-83
2023/05/05 08:23:37;;;;;;;4.45;2.88;;;19.70;99.90;;;;;;4928058;28;20051;-85
2023/05/05 08:26:08;;;;;;;5.07;2.60;;;19.80;99.90;;;;;;4952477;28;20024;-83
2023/05/05 08:28:35;;;;;;;4.10;2.47;;;;;;;;;;4941012;28;20043;-84
2023/05/05 08:31:01;;;;;;;6.35;2.38;;;;;;;;;;4942843;29;20095;-85
2023/05/05 08:33:27;;;;;;;7.93;2.38;;;20.00;99.90;;;;;;4963238;28;20035;-82
2023/05/05 08:35:53;;;;;;;4.70;2.53;;;;;;;;;;4945796;29;20031;-83
2023/05/05 08:38:19;;;;;;;5.20;2.30;;;;;;;;;;4959789;28;20035;-83
2023/05/05 08:40:47;;;;;;;6.45;2.50;;;;;;;;;;4953057;28;20043;-83
2023/05/05 08:43:14;;;;;;;4.10;2.08;;;;;;;;;;4961731;28;20031;-84
2023/05/05 08:45:41;;;;;;;6.43;2.08;;;;;;;;;;4942797;29;20035;-84
2023/05/05 08:48:08;;;;;;;4.22;2.20;;;20.70;99.90;;;;;;4948360;28;20062;-83
2023/05/05 08:51:30;;;;;;;5.65;2.05;;;20.60;99.90;;;;;;4944403;29;20050;-81
2023/05/05 08:54:07;;;;;;;3.22;2.10;;;20.60;99.90;;;;;;4938769;28;20025;-82
2023/05/05 08:56:49;;;;;;;;;;;;;;;;;;;;;
2023/05/05 08:59:16;;;;;;;5.15;2.20;;;21.00;99.90;;;;;;4965134;28;20051;-85
2023/05/05 09:01:46;;;;;;;4.85;2.70;;;21.10;99.90;;;;;;4947177;28;20039;-83
2023/05/05 09:04:12;;;;;;;6.70;2.60;;;;;;;;;;4960418;28;20023;-83
2023/05/05 09:06:41;;;;;;;5.53;2.30;;;;;;;;;;4965284;28;20039;-86
2023/05/05 09:09:07;;;;;;;5.17;2.10;;;;;;;;;;4946119;29;20063;-84
2023/05/05 09:11:34;;;;;;;3.72;1.90;;;;;;;;;;4940868;28;20038;-83
2023/05/05 09:14:02;;;;;;;5.65;1.67;;;21.60;99.90;;;;;;4957381;28;20055;-84
2023/05/05 09:16:28;;;;;;;3.95;1.90;;;;;;;;;;4960942;29;20039;-83
2023/05/05 09:19:16;;;;;;;4.70;1.40;;;21.70;99.90;;;;;;4949199;29;20028;-84
2023/05/05 09:21:48;;;;;;;3.65;1.55;;;21.70;99.90;;;;;;4966212;28;20035;-84
2023/05/05 09:24:14;;;;;;;4.90;1.45;;;;;;;;;;4963065;28;20055;-83
2023/05/05 09:26:47;;;;;;;6.50;1.80;;;21.60;99.90;;;;;;4958143;29;20099;-84
2023/05/05 09:29:20;;;;;;;3.05;1.48;;;21.70;99.90;;;;;;4937972;29;20031;-83
2023/05/05 09:32:07;;;;;;;4.25;1.80;;;21.60;99.90;;;;;;4938741;28;20031;-81
2023/05/05 09:34:36;;;;;;;3.85;1.90;;;21.60;99.70;;;;;;4954687;28;20046;-83
2023/05/05 09:37:02;;;;;;;4.53;1.52;;;21.70;99.90;;;;;;4938106;29;20118;-83
2023/05/05 09:39:27;;;;;;;3.70;1.38;;;21.70;99.90;;;;;;4934916;28;20838;-82
2023/05/05 09:41:54;;;;;;;2.67;1.38;;;;;;;;;;4957024;28;20034;-83
2023/05/05 09:44:34;;;;;;;3.88;1.70;;;21.70;99.90;;;;;;4952635;28;20031;-83
2023/05/05 09:46:59;;;;;;;;;;;21.70;99.90;;;;;;4946153;28;20041;-83
2023/05/05 09:49:25;;;;;;;6.00;1.73;;;;;;;;;;4938560;28;19911;-82
2023/05/05 09:51:53;;;;;;;7.25;2.50;;;21.90;99.90;;;;;;4957208;28;20043;-85
2023/05/05 09:54:26;;;;;;;4.70;1.50;;;21.90;99.90;;;;;;4954776;28;20038;-82
2023/05/05 09:56:52;;;;;;;4.32;1.42;;;;;;;;;;4940350;29;20047;-82
2023/05/05 09:59:18;;;;;;;4.72;1.80;;;22.20;99.10;;;;;;4956451;28;20583;-85
2023/05/05 10:01:45;;;;;;;5.22;2.63;;;;;;;;;;4934681;29;20041;-83
2023/05/05 10:04:28;;;;;;;5.35;1.83;;;22.40;99.10;;;;;;4955944;28;20027;-83
2023/05/05 10:06:57;;;;;;;4.78;1.90;;;22.40;99.20;;;;;;4943794;28;20138;-85
2023/05/05 10:09:24;;;;;;;4.22;2.03;;;22.70;98.10;;;;;;4954569;28;20035;-84
2023/05/05 10:11:51;;;;;;;4.72;1.98;;;;;;;;;;4955335;28;20043;-85
2023/05/05 10:14:17;;;;;;;6.30;3.13;;;;;;;;;;4938251;28;20050;-85
2023/05/05 10:16:49;;;;;;;5.40;1.60;;;22.90;98.30;;;;;;4953740;28;20091;-83
2023/05/05 10:19:21;;;;;;;4.55;1.73;;;23.00;97.90;;;;;;4942384;29;20039;-85
2023/05/05 10:21:52;;;;;;;3.30;1.65;;;23.20;97.50;;;;;;4936853;29;20399;-84
2023/05/05 10:24:37;;;;;;;3.58;1.55;;;23.10;97.70;;;;;;4933929;28;20030;-84
2023/05/05 10:27:12;;;;;;;5.22;1.50;;;23.00;97.50;;;;;;4939284;29;20056;-86
2023/05/05 10:29:59;;;;;;;3.28;1.45;;;23.00;97.80;;;;;;4946170;28;20040;-85
2023/05/05 10:32:30;;;;;;;3.53;1.63;;;23.10;97.30;;;;;;4956989;28;20028;-85
2023/05/05 10:35:02;;;;;;;6.43;1.83;;;23.10;97.40;;;;;;4941319;29;20038;-83
2023/05/05 10:37:29;;;;;;;3.17;1.88;;;23.00;97.20;;;;;;4951538;28;20052;-85
2023/05/05 10:39:58;;;;;;;5.07;2.03;;;;;;;;;;4942177;29;20031;-84
2023/05/05 10:42:24;;;;;;;4.07;1.60;;;;;;;;;;4955974;28;20027;-84
2023/05/05 10:44:50;;;;;;;6.95;1.73;;;22.70;96.10;;;;;;4959477;28;20290;-84
2023/05/05 10:47:17;;;;;;;5.18;1.23;;;22.40;95.70;;;;;;4965582;28;20075;-87
2023/05/05 10:50:07;;;;;;;2.47;1.23;;;22.30;96.00;;;;;;4950049;29;20094;-85
2023/05/05 10:53:14;;;;;;;1.88;1.08;;;22.20;95.80;;;;;;4956644;28;20027;-84
2023/05/05 10:56:07;;;;;;;1.73;0.93;;;22.00;95.30;;;;;;4962319;28;20063;-83
2023/05/05 10:58:35;;;;;;;3.70;1.00;;;21.90;94.70;;;;;;4962145;28;20023;-83
2023/05/05 11:01:02;;;;;;;2.22;1.10;;;22.10;95.40;;;;;;4949247;28;20023;-85
2023/05/05 11:03:28;;;;;;;0.95;0.82;;;;;;;;;;4951300;28;20031;-83
2023/05/05 11:06:03;;;;;;;3.88;1.20;;;22.20;94.30;;;;;;4958043;28;20027;-84
2023/05/05 11:08:30;;;;;;;2.47;1.15;;;22.70;94.40;;;;;;4948791;28;20023;-86
2023/05/05 11:10:56;;;;;;;5.97;1.60;;;;;;;;;;4964862;28;20051;-85
2023/05/05 11:13:22;;;;;;;4.68;1.30;;;;;;;;;;4954382;28;20091;-84
2023/05/05 11:15:50;;;;;;;6.00;2.35;;;23.00;93.90;;;;;;4943617;29;20091;-86
2023/05/05 11:18:43;;;;;;;2.08;0.90;;;22.90;94.20;;;;;;4966724;28;20047;-88
2023/05/05 11:21:15;;;;;;;3.15;1.10;;;23.10;92.30;;;;;;4964091;28;20527;-83
2023/05/05 11:23:42;;;;;;;4.95;1.40;;;23.10;91.90;;;;;;4948660;29;20035;-83
2023/05/05 11:26:11;;;;;;;2.72;1.23;;;23.60;91.20;;;;;;4962504;28;20384;-85
2023/05/05 11:28:58;;;;;;;4.30;1.50;;;23.70;91.20;;;;;;4964120;29;20053;-83
2023/05/05 11:31:25;;;;;;;5.15;1.30;;;;;;;;;;4949146;28;20034;-84
2023/05/05 11:33:51;;;;;;;4.55;1.60;;;23.80;90.70;;;;;;4950458;28;20028;-82
2023/05/05 11:36:22;;;;;;;2.47;1.20;;;23.70;90.30;;;;;;4946960;28;20027;-85
2023/05/05 11:39:00;;;;;;;2.03;0.88;;;23.40;90.40;;;;;;4967122;28;20158;-87
2023/05/05 11:41:32;;;;;;;2.70;1.02;;;23.30;90.50;;;;;;4950219;29;20090;-83
2023/05/05 11:44:13;;;;;;;4.22;1.25;;;23.30;90.70;;;;;;4964715;28;20035;-86
2023/05/05 11:46:55;;;;;;;2.20;1.17;;;23.50;90.60;;;;;;4966989;28;20071;-83
2023/05/05 11:49:30;;;;;;;4.40;1.17;;;23.40;90.80;;;;;;4960977;28;20027;-85
2023/05/05 11:51:56;;;;;;;6.40;1.83;;;23.50;90.70;;;;;;4968741;28;20028;-85
2023/05/05 11:54:23;;;;;;;7.63;1.52;;;;;;;;;;4948749;28;20038;-85
2023/05/05 11:56:57;;;;;;;2.30;1.00;;;23.80;90.40;;;;;;4950948;29;20460;-83
2023/05/05 11:59:24;;;;;;;3.00;1.40;;;23.90;89.50;;;;;;4950928;29;20064;-86
2023/05/05 12:01:50;;;;;;;2.20;1.30;;;23.70;89.70;;;;;;4945684;29;20087;-81
2023/05/05 12:04:17;;;;;;;4.90;1.60;;;23.70;90.20;;;;;;4963655;28;20158;-84
2023/05/05 12:06:44;;;;;;;4.25;1.50;;;23.60;90.70;;;;;;4951827;28;20061;-82
2023/05/05 12:09:21;;;;;;;2.47;1.30;;;23.50;90.90;;;;;;4961752;28;20552;-86
2023/05/05 12:11:54;;;;;;;5.95;1.77;;;23.40;91.10;;;;;;4960619;28;20095;-83
2023/05/05 12:14:20;;;;;;;3.25;1.13;;;;;;;;;;4938930;28;20114;-83
2023/05/05 12:16:55;;;;;;;3.65;1.30;;;23.30;91.10;;;;;;4947285;29;20035;-82
2023/05/05 12:19:21;;;;;;;3.10;1.10;;;;;;;;;;4963089;28;20023;-84
2023/05/05 12:21:47;;;;;;;3.92;1.10;;;22.90;91.60;;;;;;4959159;28;20046;-85
2023/05/05 12:24:13;;;;;;;2.65;1.33;;;;;;;;;;4957887;28;20039;-85
2023/05/05 12:26:39;;;;;;;2.80;1.20;;;;;;;;;;4957813;28;20543;-83
2023/05/05 12:29:06;;;;;;;6.28;1.75;;;;;;;;;;4945015;29;20059;-85
2023/05/05 12:31:39;;;;;;;6.85;1.88;;;22.40;92.10;;;;;;4951750;28;20019;-87
2023/05/05 12:34:07;;;;;;;4.43;1.33;;;22.40;92.10;;;;;;4944471;28;20059;-85
2023/05/05 12:36:34;;;;;;;3.92;1.30;;;22.40;92.40;;;;;;4958275;28;20038;-88
2023/05/05 12:39:00;;;;;;;2.60;1.20;;;;;;;;;;4957630;28;20167;-86
2023/05/05 12:41:26;;;;;;;4.47;1.23;;;;;;;;;;4954041;28;20035;-85
2023/05/05 12:43:57;;;;;;;2.63;0.95;;;22.60;91.60;;;;;;4951789;28;20036;-86
2023/05/05 12:46:23;;;;;;;4.95;1.45;;;;;;;;;;4960086;28;20022;-84
2023/05/05 12:49:04;;;;;;;4.00;1.40;;;22.50;92.10;;;;;;4945758;29;20047;-85
2023/05/05 12:51:31;;;;;;;5.50;1.90;;;22.40;92.40;;;;;;4948256;28;20804;-84
2023/05/05 12:54:08;;;;;;;4.55;1.40;;;22.30;92.50;;;;;;4947380;29;20055;-86
2023/05/05 12:56:42;;;;;;;5.30;1.40;;;22.30;92.60;;;;;;4949220;28;20030;-85
2023/05/05 12:59:10;;;;;;;2.92;1.38;;;22.20;92.90;;;;;;4942842;28;20039;-86
2023/05/05 13:01:47;;;;;;;7.13;1.98;;;22.10;93.80;;;;;;4940388;29;20047;-85
2023/05/05 13:04:13;;;;;;;5.40;1.70;;;;;;;;;;4964010;28;20031;-84
2023/05/05 13:06:41;;;;;;;5.65;1.30;;;22.00;94.40;;;;;;4962203;28;20536;-84
2023/05/05 13:09:09;;;;;;;5.20;1.55;;;21.90;94.90;;;;;;4948543;29;20074;-87
2023/05/05 13:11:40;;;;;;;2.67;1.27;;;21.70;96.40;;;;;;4944669;29;20034;-86
2023/05/05 13:14:06;;;;;;;3.40;1.40;;;;;;;;;;4964237;29;20057;-85
2023/05/05 13:16:32;;;;;;;5.15;1.30;;;21.60;96.50;;;;;;4961018;28;20411;-84
2023/05/05 13:18:58;;;;;;;5.05;2.10;;;;;;;;;;4948196;29;20035;-85
2023/05/05 13:21:24;;;;;;;3.53;1.50;;;21.40;97.60;;;;;;4945300;29;20078;-86
2023/05/05 13:23:50;;;;;;;4.80;1.67;;;21.10;99.10;;;;;;4947580;29;20035;-85
2023/05/05 13:26:17;;;;;;;5.78;1.70;;;;;;;;;;4944796;29;20055;-87
2023/05/05 13:28:42;;;;;;;4.38;1.80;;;21.00;99.90;;;;;;4945162;29;20051;-84
2023/05/05 13:31:08;;;;;;;6.90;1.73;;;20.10;99.90;;;;;;4940508;29;20031;-86
2023/05/05 13:33:34;;;;;;;6.80;2.15;;;;;;;;;;4950927;28;20511;-85
2023/05/05 13:36:01;;;;;;;5.70;2.10;;;20.70;99.90;;;;;;4948465;29;20031;-84
2023/05/05 13:38:27;;;;;;;4.30;2.20;;;;;;;;;;4950602;29;20038;-85
2023/05/05 13:40:53;;;;;;;2.97;1.45;;;;;;;;;;4949898;29;20035;-85